createdAt,value
2019-03-19T00:00:17.960Z,4.50
2019-03-19T00:02:46.452Z,4.40
2019-03-19T00:05:14.913Z,4.40
2019-03-19T00:07:43.458Z,4.40
2019-03-19T00:10:12.126Z,4.40
2019-03-19T00:12:40.571Z,4.40
2019-03-19T00:15:10.950Z,4.40
2019-03-19T00:17:39.411Z,4.40
2019-03-19T00:20:11.055Z,4.40
2019-03-19T00:22:39.512Z,4.40
2019-03-19T00:25:07.945Z,4.30
2019-03-19T00:27:36.385Z,4.30
2019-03-19T00:30:08.024Z,4.30
2019-03-19T00:32:36.465Z,4.30
2019-03-19T00:35:06.828Z,4.30
2019-03-19T00:37:35.297Z,4.20
2019-03-19T00:40:06.733Z,4.20
2019-03-19T00:42:35.193Z,4.20
2019-03-19T00:45:04.949Z,4.20
2019-03-19T00:47:33.381Z,4.20
2019-03-19T00:50:04.181Z,4.20
2019-03-19T00:52:32.619Z,4.20
2019-03-19T00:55:01.040Z,4.20
2019-03-19T00:57:29.473Z,4.10
2019-03-19T00:59:57.896Z,4.20
2019-03-19T01:02:26.329Z,4.20
2019-03-19T01:04:54.768Z,4.20
2019-03-19T01:07:23.216Z,4.10
2019-03-19T01:09:51.641Z,4.20
2019-03-19T01:12:20.096Z,4.10
2019-03-19T01:14:48.513Z,4.10
2019-03-19T01:17:16.968Z,4.10
2019-03-19T01:19:45.413Z,4.10
2019-03-19T01:22:13.864Z,4.10
2019-03-19T01:24:42.288Z,4.10
2019-03-19T01:27:10.758Z,4.10
2019-03-19T01:29:39.224Z,4.20
2019-03-19T01:32:07.728Z,4.10
2019-03-19T01:34:36.164Z,4.10
2019-03-19T01:37:04.585Z,4.10
2019-03-19T01:39:33.036Z,4.10
2019-03-19T01:42:01.509Z,4.00
2019-03-19T01:44:29.937Z,4.00
2019-03-19T01:46:58.369Z,4.00
2019-03-19T01:49:26.800Z,4.10
2019-03-19T01:51:55.225Z,4.10
2019-03-19T01:54:23.665Z,4.10
2019-03-19T01:56:52.083Z,4.10
2019-03-19T01:59:21.477Z,4.20
2019-03-19T02:01:49.926Z,4.10
2019-03-19T02:04:18.369Z,4.10
2019-03-19T02:06:46.793Z,4.10
2019-03-19T02:09:15.237Z,4.10
2019-03-19T02:11:43.677Z,4.10
2019-03-19T02:14:12.196Z,4.10
2019-03-19T02:16:40.626Z,4.10
2019-03-19T02:19:09.107Z,4.20
2019-03-19T02:21:37.565Z,4.20
2019-03-19T02:24:05.998Z,4.30
2019-03-19T02:26:34.433Z,4.30
2019-03-19T02:29:03.018Z,4.20
2019-03-19T02:31:31.496Z,4.20
2019-03-19T02:34:00.081Z,4.10
2019-03-19T02:36:28.574Z,4.00
2019-03-19T02:38:57.007Z,4.10
2019-03-19T02:41:25.448Z,4.00
2019-03-19T02:43:54.137Z,4.10
2019-03-19T02:46:22.564Z,4.10
2019-03-19T02:48:51.025Z,4.10
2019-03-19T02:51:19.527Z,4.20
2019-03-19T02:53:47.949Z,4.20
2019-03-19T02:56:31.401Z,4.20
2019-03-19T02:58:46.526Z,4.30
2019-03-19T03:01:14.960Z,4.50
2019-03-19T03:03:43.381Z,4.50
2019-03-19T03:06:11.817Z,4.50
2019-03-19T03:08:40.399Z,4.50
2019-03-19T03:11:08.837Z,4.50
2019-03-19T03:13:37.264Z,4.40
2019-03-19T03:16:05.760Z,4.30
2019-03-19T03:18:34.197Z,4.20
2019-03-19T03:21:02.706Z,4.30
2019-03-19T03:23:31.136Z,4.30
2019-03-19T03:25:59.575Z,4.20
2019-03-19T03:28:28.144Z,4.30
2019-03-19T03:30:56.647Z,4.30
2019-03-19T03:33:25.145Z,4.30
2019-03-19T03:35:53.581Z,4.20
2019-03-19T03:38:23.541Z,4.20
2019-03-19T03:40:51.992Z,4.30
2019-03-19T03:43:20.458Z,4.20
2019-03-19T03:45:48.922Z,4.20
2019-03-19T03:48:17.363Z,4.20
2019-03-19T03:50:45.809Z,4.10
2019-03-19T03:53:14.229Z,4.00
2019-03-19T03:55:42.665Z,4.10
2019-03-19T03:58:11.093Z,4.10
2019-03-19T04:00:39.527Z,4.10
2019-03-19T04:03:08.101Z,4.10
2019-03-19T04:05:36.537Z,4.10
2019-03-19T04:08:05.502Z,4.10
2019-03-19T04:10:33.930Z,4.00
2019-03-19T04:13:02.366Z,4.10
2019-03-19T04:15:30.814Z,4.10
2019-03-19T04:17:59.254Z,4.10
2019-03-19T04:20:27.684Z,4.10
2019-03-19T04:22:56.112Z,4.10
2019-03-19T04:25:24.616Z,4.10
2019-03-19T04:27:53.126Z,4.10
2019-03-19T04:30:21.539Z,4.00
2019-03-19T04:32:49.968Z,4.00
2019-03-19T04:35:18.399Z,4.00
2019-03-19T04:37:46.831Z,3.90
2019-03-19T04:40:16.208Z,3.90
2019-03-19T04:42:44.990Z,3.90
2019-03-19T04:45:14.513Z,3.90
2019-03-19T04:47:42.958Z,4.00
2019-03-19T04:50:13.118Z,4.00
2019-03-19T04:52:41.554Z,4.00
2019-03-19T04:55:17.347Z,3.90
2019-03-19T04:57:45.804Z,4.00
2019-03-19T05:00:15.896Z,4.00
2019-03-19T05:02:44.328Z,4.00
2019-03-19T05:05:13.802Z,3.90
2019-03-19T05:07:42.237Z,3.90
2019-03-19T05:10:13.869Z,4.00
2019-03-19T05:12:42.456Z,4.10
2019-03-19T05:15:11.317Z,4.20
2019-03-19T05:17:39.741Z,4.30
2019-03-19T05:20:12.405Z,4.30
2019-03-19T05:22:40.865Z,4.30
2019-03-19T05:25:10.329Z,4.20
2019-03-19T05:27:38.761Z,4.00
2019-03-19T05:30:12.987Z,3.80
2019-03-19T05:32:42.955Z,3.50
2019-03-19T05:35:11.400Z,3.50
2019-03-19T05:37:39.847Z,3.50
2019-03-19T05:40:13.258Z,3.40
2019-03-19T05:42:43.236Z,3.40
2019-03-19T05:45:13.781Z,3.40
2019-03-19T05:47:43.729Z,3.50
2019-03-19T05:50:22.780Z,3.40
2019-03-19T05:52:51.203Z,3.30
2019-03-19T05:55:19.639Z,3.40
2019-03-19T05:57:50.415Z,3.40
2019-03-19T06:00:21.864Z,3.40
2019-03-19T06:02:50.298Z,3.40
2019-03-19T06:05:20.906Z,3.50
2019-03-19T06:07:49.048Z,3.60
2019-03-19T06:10:17.486Z,3.70
2019-03-19T06:12:45.912Z,3.80
2019-03-19T06:15:15.404Z,3.80
2019-03-19T06:17:43.827Z,3.90
2019-03-19T06:20:14.390Z,4.00
2019-03-19T06:22:42.832Z,4.10
2019-03-19T06:25:12.331Z,4.10
2019-03-19T06:27:40.764Z,4.20
2019-03-19T06:30:19.883Z,4.20
2019-03-19T06:32:48.340Z,4.20
2019-03-19T06:35:16.998Z,4.20
2019-03-19T06:37:45.523Z,4.30
2019-03-19T06:40:15.608Z,4.30
2019-03-19T06:42:44.200Z,4.20
2019-03-19T06:45:15.729Z,4.10
2019-03-19T06:47:44.466Z,4.30
2019-03-19T06:50:15.429Z,5.80
2019-03-19T06:52:43.943Z,6.50
2019-03-19T06:55:14.259Z,8.00
2019-03-19T06:57:44.116Z,8.40
2019-03-19T07:00:23.063Z,7.70
2019-03-19T07:02:51.542Z,8.20
2019-03-19T07:05:21.973Z,8.30
2019-03-19T07:07:50.442Z,8.70
2019-03-19T07:10:20.003Z,8.60
2019-03-19T07:12:48.449Z,8.70
2019-03-19T07:15:24.081Z,9.00
2019-03-19T07:17:52.888Z,9.40
2019-03-19T07:20:25.812Z,7.70
2019-03-19T07:22:54.265Z,6.10
2019-03-19T07:25:22.694Z,5.20
2019-03-19T07:27:51.489Z,5.00
2019-03-19T07:30:24.874Z,5.00
2019-03-19T07:32:53.311Z,5.10
2019-03-19T07:35:22.201Z,5.10
2019-03-19T07:37:50.756Z,5.00
2019-03-19T07:40:19.185Z,5.00
2019-03-19T07:42:47.638Z,5.10
2019-03-19T07:45:20.313Z,5.20
2019-03-19T07:47:48.814Z,5.30
2019-03-19T07:50:21.413Z,5.40
2019-03-19T07:52:50.126Z,5.30
2019-03-19T07:55:18.541Z,5.30
2019-03-19T07:57:46.996Z,5.30
2019-03-19T08:00:17.640Z,5.20
2019-03-19T08:02:46.166Z,5.30
2019-03-19T08:05:14.649Z,5.40
2019-03-19T08:07:43.165Z,5.40
2019-03-19T08:10:19.250Z,5.60
2019-03-19T08:12:47.833Z,5.70
2019-03-19T08:15:17.396Z,5.90
2019-03-19T08:17:45.910Z,5.80
2019-03-19T08:20:15.756Z,5.90
2019-03-19T08:22:44.199Z,5.90
2019-03-19T08:25:17.477Z,5.80
2019-03-19T08:27:46.172Z,5.90
2019-03-19T08:30:24.455Z,6.00
2019-03-19T08:32:53.456Z,6.10
2019-03-19T08:35:21.899Z,6.20
2019-03-19T08:37:50.461Z,6.30
2019-03-19T08:40:19.552Z,6.40
2019-03-19T08:42:48.120Z,6.50
2019-03-19T08:45:23.562Z,6.20
2019-03-19T08:47:52.149Z,6.20
2019-03-19T08:50:23.101Z,6.20
2019-03-19T08:52:51.537Z,6.10
2019-03-19T08:55:19.977Z,6.20
2019-03-19T08:57:48.502Z,6.10
2019-03-19T09:00:19.243Z,6.20
2019-03-19T09:02:50.097Z,6.20
2019-03-19T09:05:18.657Z,6.30
2019-03-19T09:07:47.149Z,6.40
2019-03-19T09:10:18.926Z,6.40
2019-03-19T09:12:48.674Z,6.40
2019-03-19T09:15:20.008Z,6.40
2019-03-19T09:17:48.467Z,6.60
2019-03-19T09:20:17.997Z,6.80
2019-03-19T09:22:46.473Z,6.90
2019-03-19T09:25:14.898Z,7.00
2019-03-19T09:27:43.330Z,7.00
2019-03-19T09:30:18.896Z,6.90
2019-03-19T09:32:47.341Z,6.70
2019-03-19T09:35:15.858Z,6.70
2019-03-19T09:37:53.516Z,7.00
2019-03-19T09:40:16.049Z,7.00
2019-03-19T09:42:44.553Z,7.00
2019-03-19T09:45:14.621Z,6.90
2019-03-19T09:47:43.056Z,6.80
2019-03-19T09:50:17.256Z,6.80
2019-03-19T09:52:46.226Z,6.70
2019-03-19T09:55:15.537Z,6.70
2019-03-19T09:57:43.966Z,6.80
2019-03-19T10:00:17.206Z,6.90
2019-03-19T10:02:45.634Z,7.10
2019-03-19T10:05:14.129Z,7.10
2019-03-19T10:07:42.560Z,7.20
2019-03-19T10:10:13.534Z,7.10
2019-03-19T10:12:41.958Z,7.20
2019-03-19T10:15:12.190Z,7.40
2019-03-19T10:17:40.756Z,7.50
2019-03-19T10:20:12.596Z,7.50
2019-03-19T10:22:41.031Z,7.20
2019-03-19T10:25:12.664Z,7.20
2019-03-19T10:27:41.186Z,7.20
2019-03-19T10:30:23.581Z,7.30
2019-03-19T10:32:52.274Z,7.50
2019-03-19T10:35:20.711Z,7.40
2019-03-19T10:37:49.137Z,7.50
2019-03-19T10:40:21.488Z,7.70
2019-03-19T10:42:50.114Z,7.90
2019-03-19T10:45:24.684Z,8.10
2019-03-19T10:47:53.106Z,8.10
2019-03-19T10:50:23.632Z,8.20
2019-03-19T10:52:52.071Z,7.90
2019-03-19T10:55:20.570Z,7.80
2019-03-19T10:57:49.026Z,7.80
2019-03-19T11:00:20.127Z,7.70
2019-03-19T11:02:49.385Z,7.60
2019-03-19T11:05:18.374Z,7.50
2019-03-19T11:07:46.789Z,7.50
2019-03-19T11:10:19.141Z,7.80
2019-03-19T11:12:47.569Z,7.60
2019-03-19T11:15:21.171Z,7.60
2019-03-19T11:17:49.614Z,7.60
2019-03-19T11:20:19.123Z,7.70
2019-03-19T11:22:47.990Z,7.80
2019-03-19T11:25:18.317Z,7.80
2019-03-19T11:27:46.828Z,7.80
2019-03-19T11:30:23.010Z,7.90
2019-03-19T11:32:51.434Z,8.00
2019-03-19T11:35:21.710Z,8.00
2019-03-19T11:37:50.349Z,7.80
2019-03-19T11:40:20.698Z,8.00
2019-03-19T11:42:50.208Z,8.00
2019-03-19T11:45:25.019Z,8.10
2019-03-19T11:47:53.750Z,8.20
2019-03-19T11:50:26.647Z,8.00
2019-03-19T11:52:55.063Z,7.80
2019-03-19T11:55:23.603Z,7.90
2019-03-19T11:57:52.490Z,7.80
2019-03-19T12:00:44.683Z,7.80
2019-03-19T12:03:16.482Z,7.90
2019-03-19T12:05:43.342Z,8.00
2019-03-19T12:08:13.418Z,8.00
2019-03-19T12:10:41.926Z,8.20
2019-03-19T12:13:10.345Z,8.20
2019-03-19T12:15:40.752Z,8.30
2019-03-19T12:18:08.952Z,8.30
2019-03-19T12:20:37.392Z,8.30
2019-03-19T12:23:06.267Z,8.30
2019-03-19T12:25:34.701Z,8.30
2019-03-19T12:28:03.139Z,8.40
2019-03-19T12:30:31.556Z,8.40
2019-03-19T12:32:59.990Z,8.60
2019-03-19T12:35:30.649Z,8.50
2019-03-19T12:37:58.581Z,8.30
2019-03-19T12:40:36.363Z,7.90
2019-03-19T12:42:57.182Z,8.10
2019-03-19T12:45:25.676Z,7.80
2019-03-19T12:47:54.115Z,7.50
2019-03-19T12:50:26.365Z,7.70
2019-03-19T12:52:54.813Z,7.80
2019-03-19T12:55:23.250Z,8.10
2019-03-19T12:57:51.695Z,8.20
2019-03-19T13:00:34.284Z,7.90
2019-03-19T13:02:58.191Z,8.00
2019-03-19T13:05:26.621Z,7.90
2019-03-19T13:07:55.088Z,7.80
2019-03-19T13:10:24.672Z,8.10
2019-03-19T13:12:53.215Z,8.40
2019-03-19T13:15:22.292Z,8.00
2019-03-19T13:17:50.772Z,7.80
2019-03-19T13:20:23.550Z,7.60
2019-03-19T13:22:51.990Z,7.70
2019-03-19T13:25:22.823Z,7.80
2019-03-19T13:27:51.542Z,7.90
2019-03-19T13:30:25.163Z,7.90
2019-03-19T13:32:53.819Z,8.00
2019-03-19T13:35:22.357Z,8.00
2019-03-19T13:37:50.903Z,8.20
2019-03-19T13:40:21.356Z,8.30
2019-03-19T13:42:50.085Z,8.20
2019-03-19T13:45:23.606Z,7.90
2019-03-19T13:47:52.145Z,7.80
2019-03-19T13:50:22.595Z,7.90
2019-03-19T13:52:51.029Z,8.00
2019-03-19T13:55:20.815Z,7.90
2019-03-19T13:57:49.597Z,7.70
2019-03-19T14:00:18.789Z,7.80
2019-03-19T14:02:47.284Z,7.80
2019-03-19T14:05:16.514Z,7.80
2019-03-19T14:07:45.205Z,7.80
2019-03-19T14:10:22.051Z,7.80
2019-03-19T14:12:50.477Z,7.90
2019-03-19T14:15:21.413Z,7.80
2019-03-19T14:17:49.842Z,7.60
2019-03-19T14:20:18.448Z,7.90
2019-03-19T14:22:46.914Z,8.00
2019-03-19T14:25:16.591Z,7.90
2019-03-19T14:27:45.588Z,7.80
2019-03-19T14:30:18.712Z,7.80
2019-03-19T14:32:47.441Z,7.90
2019-03-19T14:35:16.044Z,8.00
2019-03-19T14:37:45.076Z,8.10
2019-03-19T14:40:23.903Z,8.40
2019-03-19T14:42:52.336Z,8.80
2019-03-19T14:45:20.862Z,9.30
2019-03-19T14:47:49.356Z,9.40
2019-03-19T14:50:25.422Z,9.00
2019-03-19T14:52:53.862Z,9.00
2019-03-19T14:55:24.178Z,9.60
2019-03-19T14:57:52.706Z,9.70
2019-03-19T15:00:22.319Z,9.40
2019-03-19T15:02:50.801Z,9.00
2019-03-19T15:05:19.482Z,8.90
2019-03-19T15:07:47.954Z,8.60
2019-03-19T15:10:17.708Z,8.70
2019-03-19T15:12:46.140Z,9.10
2019-03-19T15:15:17.666Z,8.90
2019-03-19T15:17:46.483Z,8.90
2019-03-19T15:20:17.610Z,9.00
2019-03-19T15:22:46.041Z,9.00
2019-03-19T15:25:14.518Z,8.80
2019-03-19T15:27:43.013Z,8.50
2019-03-19T15:30:14.166Z,8.60
2019-03-19T15:32:42.612Z,8.40
2019-03-19T15:35:11.640Z,8.30
2019-03-19T15:37:40.179Z,8.10
2019-03-19T15:40:16.893Z,8.20
2019-03-19T15:42:45.329Z,8.20
2019-03-19T15:45:18.958Z,8.20
2019-03-19T15:47:47.541Z,8.40
2019-03-19T15:50:16.564Z,8.40
2019-03-19T15:52:45.328Z,8.50
2019-03-19T15:55:15.481Z,8.30
2019-03-19T15:57:43.989Z,8.40
2019-03-19T16:00:17.093Z,8.30
2019-03-19T16:02:45.530Z,8.40
2019-03-19T16:05:14.793Z,8.40
2019-03-19T16:07:44.271Z,8.40
2019-03-19T16:10:18.952Z,8.30
2019-03-19T16:12:47.658Z,8.30
2019-03-19T16:15:23.713Z,8.10
2019-03-19T16:17:52.145Z,7.80
2019-03-19T16:20:21.605Z,8.00
2019-03-19T16:22:50.055Z,8.00
2019-03-19T16:25:18.755Z,8.00
2019-03-19T16:27:47.296Z,8.10
2019-03-19T16:30:17.978Z,8.00
2019-03-19T16:32:46.409Z,8.10
2019-03-19T16:35:15.304Z,8.00
2019-03-19T16:37:43.733Z,7.90
2019-03-19T16:40:17.605Z,7.90
2019-03-19T16:42:46.294Z,7.80
2019-03-19T16:45:14.721Z,7.80
2019-03-19T16:47:43.187Z,7.80
2019-03-19T16:50:22.152Z,7.60
2019-03-19T16:52:50.865Z,7.70
2019-03-19T16:55:21.394Z,7.60
2019-03-19T16:57:49.843Z,7.60
2019-03-19T17:00:23.056Z,7.60
2019-03-19T17:02:51.497Z,7.50
2019-03-19T17:05:19.927Z,7.50
2019-03-19T17:07:48.518Z,7.40
2019-03-19T17:10:23.134Z,7.30
2019-03-19T17:12:51.556Z,7.30
2019-03-19T17:15:19.977Z,7.20
2019-03-19T17:17:48.400Z,7.20
2019-03-19T17:20:18.384Z,7.20
2019-03-19T17:22:46.808Z,7.10
2019-03-19T17:25:18.315Z,7.00
2019-03-19T17:27:46.765Z,7.00
2019-03-19T17:30:28.782Z,6.90
2019-03-19T17:32:57.205Z,6.90
2019-03-19T17:35:25.665Z,6.90
2019-03-19T17:37:54.159Z,6.80
2019-03-19T17:40:22.601Z,6.70
2019-03-19T17:42:51.038Z,6.70
2019-03-19T17:45:19.481Z,6.70
2019-03-19T17:47:47.965Z,6.70
2019-03-19T17:50:25.363Z,6.70
2019-03-19T17:52:55.296Z,6.70
2019-03-19T17:55:24.025Z,6.60
2019-03-19T17:57:52.452Z,6.60
2019-03-19T18:00:23.269Z,6.60
2019-03-19T18:02:52.018Z,6.60
2019-03-19T18:05:20.488Z,6.90
2019-03-19T18:07:48.952Z,7.20
2019-03-19T18:10:17.377Z,7.50
2019-03-19T18:12:45.804Z,7.60
2019-03-19T18:15:15.598Z,7.60
2019-03-19T18:17:44.026Z,7.40
2019-03-19T18:20:14.765Z,7.50
2019-03-19T18:22:43.469Z,7.40
2019-03-19T18:25:16.830Z,7.40
2019-03-19T18:27:45.405Z,7.50
2019-03-19T18:30:18.060Z,7.40
2019-03-19T18:32:46.498Z,7.40
2019-03-19T18:35:14.921Z,7.40
2019-03-19T18:37:43.354Z,7.20
2019-03-19T18:40:13.536Z,7.20
2019-03-19T18:42:41.969Z,7.00
2019-03-19T18:45:13.478Z,6.60
2019-03-19T18:47:41.990Z,6.50
2019-03-19T18:50:13.249Z,6.50
2019-03-19T18:52:41.689Z,6.50
2019-03-19T18:55:10.479Z,6.40
2019-03-19T18:57:41.345Z,6.30
2019-03-19T19:00:20.135Z,6.30
2019-03-19T19:02:51.015Z,6.20
2019-03-19T19:05:23.328Z,6.30
2019-03-19T19:07:51.761Z,6.40
2019-03-19T19:10:21.323Z,6.40
2019-03-19T19:12:50.483Z,6.40
2019-03-19T19:15:20.230Z,6.40
2019-03-19T19:17:51.489Z,6.50
2019-03-19T19:20:20.069Z,6.40
2019-03-19T19:22:48.505Z,6.40
2019-03-19T19:25:21.418Z,6.30
2019-03-19T19:27:49.861Z,6.30
2019-03-19T19:30:24.318Z,6.30
2019-03-19T19:33:00.854Z,6.30
2019-03-19T19:35:22.962Z,6.30
2019-03-19T19:37:51.411Z,6.30
2019-03-19T19:40:20.286Z,6.20
2019-03-19T19:42:50.334Z,6.20
2019-03-19T19:45:19.345Z,6.10
2019-03-19T19:47:47.789Z,6.10
2019-03-19T19:50:20.005Z,6.20
2019-03-19T19:52:48.738Z,6.10
2019-03-19T19:55:17.145Z,6.20
2019-03-19T19:57:45.693Z,6.20
2019-03-19T20:00:22.039Z,6.10
2019-03-19T20:02:50.805Z,6.10
2019-03-19T20:05:19.324Z,6.10
2019-03-19T20:07:48.138Z,6.10
2019-03-19T20:10:27.604Z,6.00
2019-03-19T20:12:56.031Z,6.00
2019-03-19T20:15:24.471Z,6.00
2019-03-19T20:17:52.891Z,6.20
2019-03-19T20:20:31.609Z,6.10
2019-03-19T20:23:00.047Z,6.00
2019-03-19T20:25:28.481Z,5.90
2019-03-19T20:27:58.761Z,5.90
2019-03-19T20:30:29.905Z,5.90
2019-03-19T20:32:58.336Z,5.90
2019-03-19T20:35:26.776Z,6.00
2019-03-19T20:37:55.228Z,6.00
2019-03-19T20:40:23.879Z,5.90
2019-03-19T20:42:52.585Z,5.80
2019-03-19T20:45:23.631Z,5.80
2019-03-19T20:47:52.138Z,5.90
2019-03-19T20:50:37.613Z,5.90
2019-03-19T20:53:06.305Z,5.90
2019-03-19T20:55:34.750Z,5.90
2019-03-19T20:58:03.429Z,5.90
2019-03-19T21:00:31.866Z,5.90
2019-03-19T21:03:00.291Z,5.90
2019-03-19T21:05:28.725Z,5.90
2019-03-19T21:07:57.149Z,5.90
2019-03-19T21:10:26.140Z,5.80
2019-03-19T21:12:54.553Z,5.70
2019-03-19T21:15:28.437Z,5.70
2019-03-19T21:17:56.869Z,5.70
2019-03-19T21:20:25.309Z,5.90
2019-03-19T21:22:53.905Z,6.00
2019-03-19T21:25:22.611Z,5.90
2019-03-19T21:27:51.049Z,5.80
2019-03-19T21:30:25.256Z,5.70
2019-03-19T21:32:55.529Z,5.60
2019-03-19T21:35:28.073Z,5.60
2019-03-19T21:37:56.559Z,5.60
2019-03-19T21:40:25.085Z,5.60
2019-03-19T21:42:53.528Z,5.60
2019-03-19T21:45:22.821Z,5.70
2019-03-19T21:47:51.333Z,5.70
2019-03-19T21:50:24.144Z,5.70
2019-03-19T21:52:52.788Z,5.70
2019-03-19T21:55:21.225Z,5.70
2019-03-19T21:57:49.953Z,5.70
2019-03-19T22:00:24.215Z,5.60
2019-03-19T22:02:52.809Z,5.50
2019-03-19T22:05:21.257Z,5.40
2019-03-19T22:07:49.693Z,5.40
2019-03-19T22:10:20.129Z,5.40
2019-03-19T22:12:49.694Z,5.30
2019-03-19T22:15:20.624Z,5.30
2019-03-19T22:17:49.105Z,5.20
2019-03-19T22:20:18.479Z,5.20
2019-03-19T22:22:48.050Z,5.20
2019-03-19T22:25:16.839Z,5.10
2019-03-19T22:27:45.305Z,5.20
2019-03-19T22:30:18.448Z,5.40
2019-03-19T22:32:46.995Z,5.30
2019-03-19T22:35:15.617Z,5.20
2019-03-19T22:37:44.131Z,5.20
2019-03-19T22:40:17.205Z,5.10
2019-03-19T22:42:46.022Z,5.00
2019-03-19T22:45:19.173Z,5.00
2019-03-19T22:47:47.615Z,5.00
2019-03-19T22:50:18.069Z,4.90
2019-03-19T22:52:47.042Z,4.90
2019-03-19T22:55:16.024Z,4.90
2019-03-19T22:57:45.886Z,4.90
2019-03-19T23:00:28.793Z,5.00
2019-03-19T23:02:57.235Z,5.00
2019-03-19T23:05:26.948Z,4.90
2019-03-19T23:07:55.392Z,4.90
2019-03-19T23:10:23.891Z,4.90
2019-03-19T23:12:52.314Z,4.90
2019-03-19T23:15:20.755Z,4.90
2019-03-19T23:17:49.193Z,5.00
2019-03-19T23:20:17.695Z,5.00
2019-03-19T23:22:46.184Z,5.00
2019-03-19T23:25:14.636Z,5.00
2019-03-19T23:27:43.079Z,5.00
2019-03-19T23:30:17.473Z,4.90
2019-03-19T23:32:45.929Z,4.90
2019-03-19T23:35:14.539Z,4.90
2019-03-19T23:37:42.973Z,4.90
2019-03-19T23:40:14.011Z,4.90
2019-03-19T23:42:42.485Z,4.90
2019-03-19T23:45:12.860Z,4.90
2019-03-19T23:47:41.289Z,4.90
2019-03-19T23:50:16.645Z,4.90
2019-03-19T23:52:45.349Z,4.90
2019-03-19T23:55:14.053Z,4.90
2019-03-19T23:57:42.489Z,4.90
